York, Western Australia

12:54 AM WST on July 12, 2014 (GMT +0800)
Koojedda (IWESTERN189) Elev 1047 ft | 31.74 °S, 116.44 °E | Change Station

Current weather conditions updated 9 minutes ago

Partly Cloudy
Partly Cloudy
45.7 °F
Feels Like 46 °F
N
0.0
Wind Variable Wind from SE
Gusts 2.0 mph

Today is forecast to be Warmer than yesterday.

Today
High -- | Low -- °F
--% Chance of Precip.
Yesterday
High -- | Low -- °F
Precip. -- in
7:12 AM 5:24 PM
Waxing Gibbous, 99% visible
Pressure 30.30 in
Visibility 6.2 miles
Clouds Few 3000 ft
Windchill 46 °F
Dew Point 44 °F
Humidity 95%
Rainfall 0.00 in
Snow Depth Not available.
UV 0.0 out of 12
Pollen Not available.
Air Quality Not available.
Flu Activity Not available.
METAR YPPH 111630Z 09006KT 9999 FEW030 11/08 Q1026

More Conditions Fewer Conditions

Pressure 30.30 in
Visibility 6.2 miles
Clouds Few 3000 ft
Windchill 46 °F
Dew Point 44 °F
Humidity 95%
Rainfall 0.00 in
Snow Depth Not available.
UV 0.0 out of 12
Pollen Not available.
Air Quality Not available.
Flu Activity Not available.
METAR YPPH 111630Z 09006KT 9999 FEW030 11/08 Q1026

More Conditions Fewer Conditions

10-Day Weather Forecast

Almanac

Astronomy

Jul. 12, 2014 Rise Set
Actual Time 7:12 AM WST 5:24 PM WST
Civil Twilight 6:45 AM WST 5:51 PM WST
Nautical Twilight 6:15 AM WST 6:21 PM WST
Astronomical Twilight 5:46 AM WST 6:51 PM WST
Moon 5:27 PM WST (7/12) 6:29 AM WST (7/12)
Length of Visible Light 11h 05m
Length of Day
10h 12m
Tomorrow will be 0m 50s longer.
Waxing Gibbous, 99% of the Moon is Illuminated
Jul 11
Waxing Gibbous
Jul 12
Full
Jul 18
Last Quarter
Jul 26
New
Aug 3
First Quarter

Yesterday's Extremes

Country Highs Country Lows

Community

WunderPhotos

Upload Photos

1,732,515 photos uploaded!

Nearby

Snow Depth

Not available.

Earthquake Activity

City Distance Mag. Time & Date
No recent earthquake activity has been reported nearby.
Minimum magnitude displayed is 2.5.

Coastal Water Temperatures

Place Temperature
No Stations Reporting

Nearby Weather Stations

Station Location Temp. Windchill Dew Point Humidity Wind Precip. Elev Updated Type
Koojedda, Bakers Hill 45.7 °F 46 °F 44 °F 95% SE  at  0.0 mph 0.00 in / hr 1047 ft 12:45 AM WST Normal

Show More Stations Show Fewer Stations